Time;durP1;ratioP1;P1;durP2;ratioP2;P2;SDS_P1;SDS_P2;PMS_P1;PMS_P2;Temp;Humidity;BMP_temperature;BMP_pressure;BME280_temperature;BME280_humidity;BME280_pressure;Samples;Min_cycle;Max_cycle;Signal;HPM_P1;HPM_P2
2023/07/03 00:01:44;;;;;;;;;;;;;;;;;;5068562;28;19965;-63
2023/07/03 00:04:10;;;;;;;;;;;;;;;;;;5050704;28;20267;-62
2023/07/03 00:06:36;;;;;;;;;;;;;;;;;;5071179;28;19924;-62
2023/07/03 00:09:02;;;;;;;;;;;;;;;;;;5050611;28;20422;-62
2023/07/03 00:11:28;;;;;;;;;;;;;;;;;;5069768;28;20058;-62
2023/07/03 00:13:54;;;;;;;;;;;;;;;;;;5070335;28;19928;-61
2023/07/03 00:16:20;;;;;;;;;;;;;;;;;;5066452;28;19931;-63
2023/07/03 00:18:47;;;;;;;;;;;;;;;;;;5069370;28;19935;-63
2023/07/03 00:21:13;;;;;;;;;;;;;;;;;;5067514;28;19964;-62
2023/07/03 00:23:39;;;;;;;;;;;;;;;;;;5067760;28;20001;-62
2023/07/03 00:26:05;;;;;;;;;;;;;;;;;;5070289;28;19921;-61
2023/07/03 00:28:31;;;;;;;;;;;;;;;;;;5067925;28;19921;-61
2023/07/03 00:30:57;;;;;;;;;;;;;;;;;;5068971;28;19931;-62
2023/07/03 00:33:23;;;;;;;;;;;;;;;;;;5067244;28;19928;-62
2023/07/03 00:35:49;;;;;;;;;;;;;;;;;;5070384;28;20017;-62
2023/07/03 00:38:15;;;;;;;;;;;;;;;;;;5067852;28;19925;-63
2023/07/03 00:40:41;;;;;;;;;;;;;;;;;;5069145;28;19931;-62
2023/07/03 00:43:07;;;;;;;;;;;;;;;;;;5060214;28;20395;-61
2023/07/03 00:45:33;;;;;;;;;;;;;;;;;;5061696;28;19928;-63
2023/07/03 00:47:59;;;;;;;;;;;;;;;;;;5071435;28;19955;-63
2023/07/03 00:50:25;;;;;;;;;;;;;;;;;;5069795;28;19925;-62
2023/07/03 00:52:51;;;;;;;;;;;;;;;;;;5070225;28;19924;-63
2023/07/03 00:55:17;;;;;;;;;;;;;;;;;;5069276;28;19999;-62
2023/07/03 00:57:43;;;;;;;;;;;;;;;;;;5067366;28;19928;-63
2023/07/03 01:00:09;;;;;;;;;;;;;;;;;;5069126;28;20358;-62
2023/07/03 01:02:35;;;;;;;;;;;;;;;;;;5066744;28;19920;-63
2023/07/03 01:05:01;;;;;;;;;;;;;;;;;;5067628;28;19928;-62
2023/07/03 01:07:27;;;;;;;;;;;;;;;;;;5071246;28;19927;-62
2023/07/03 01:09:53;;;;;;;;;;;;;;;;;;5068357;28;19920;-61
2023/07/03 01:12:19;;;;;;;;;;;;;;;;;;5069275;28;19920;-62
2023/07/03 01:14:45;;;;;;;;;;;;;;;;;;5067638;28;19924;-62
2023/07/03 01:17:11;;;;;;;;;;;;;;;;;;5069425;28;20366;-63
2023/07/03 01:19:36;;;;;;;;;;;;;;;;;;5068316;28;19920;-63
2023/07/03 01:22:02;;;;;;;;;;;;;;;;;;5049418;28;20419;-63
2023/07/03 01:24:28;;;;;;;;;;;;;;;;;;5068024;28;19928;-63
2023/07/03 01:26:54;;;;;;;;;;;;;;;;;;5065814;28;19965;-63
2023/07/03 01:29:20;;;;;;;;;;;;;;;;;;5071839;28;19920;-63
2023/07/03 01:31:46;;;;;;;;;;;;;;;;;;5072601;28;19924;-63
2023/07/03 01:34:12;;;;;;;;;;;;;;;;;;5072829;28;20082;-63
2023/07/03 01:36:38;;;;;;;;;;;;;;;;;;5073357;28;19932;-62
2023/07/03 01:39:04;;;;;;;;;;;;;;;;;;5062146;28;20281;-63
2023/07/03 01:41:30;;;;;;;;;;;;;;;;;;5066323;28;20034;-63
2023/07/03 01:43:56;;;;;;;;;;;;;;;;;;5067467;28;20341;-62
2023/07/03 01:46:22;;;;;;;;;;;;;;;;;;5070346;28;19924;-61
2023/07/03 01:48:48;;;;;;;;;;;;;;;;;;5070893;28;20265;-62
2023/07/03 01:51:13;;;;;;;;;;;;;;;;;;5071880;28;19924;-63
2023/07/03 01:53:39;;;;;;;;;;;;;;;;;;5070499;28;19931;-62
2023/07/03 01:56:05;;;;;;;;;;;;;;;;;;5067354;28;20346;-62
2023/07/03 01:58:32;;;;;;;;;;;;;;;;;;5073188;28;19928;-62
2023/07/03 02:00:58;;;;;;;;;;;;;;;;;;5070750;28;19924;-62
2023/07/03 02:03:24;;;;;;;;;;;;;;;;;;5071559;28;19931;-63
2023/07/03 02:05:50;;;;;;;;;;;;;;;;;;5069535;28;19924;-62
2023/07/03 02:08:16;;;;;;;;;;;;;;;;;;5071211;28;20372;-62
2023/07/03 02:10:45;;;;;;;;;;;;;;;;;;5068882;28;20335;-62
2023/07/03 02:13:11;;;;;;;;;;;;;;;;;;5066165;28;19920;-62
2023/07/03 02:15:37;;;;;;;;;;;;;;;;;;5049180;28;19932;-62
2023/07/03 02:18:03;;;;;;;;;;;;;;;;;;5061888;28;20294;-62
2023/07/03 02:20:29;;;;;;;;;;;;;;;;;;5071224;28;19966;-62
2023/07/03 02:22:56;;;;;;;;;;;;;;;;;;5067461;28;19925;-63
2023/07/03 02:25:22;;;;;;;;;;;;;;;;;;5071076;28;19924;-63
2023/07/03 02:27:50;;;;;;;;;;;;;;;;;;5068338;28;21766;-62
2023/07/03 02:30:16;;;;;;;;;;;;;;;;;;5067096;28;19928;-62
2023/07/03 02:32:42;;;;;;;;;;;;;;;;;;5066063;28;19943;-62
2023/07/03 02:35:08;;;;;;;;;;;;;;;;;;5066442;28;19925;-63
2023/07/03 02:37:34;;;;;;;;;;;;;;;;;;5070708;28;20396;-62
2023/07/03 02:39:59;;;;;;;;;;;;;;;;;;5067838;28;19956;-62
2023/07/03 02:42:25;;;;;;;;;;;;;;;;;;5064133;28;20159;-62
2023/07/03 02:44:51;;;;;;;;;;;;;;;;;;5063740;28;19928;-62
2023/07/03 02:47:17;;;;;;;;;;;;;;;;;;5066674;28;19924;-63
2023/07/03 02:49:43;;;;;;;;;;;;;;;;;;5067061;28;20432;-65
2023/07/03 02:52:09;;;;;;;;;;;;;;;;;;5071369;28;20394;-63
2023/07/03 02:54:35;;;;;;;;;;;;;;;;;;5068063;28;19932;-62
2023/07/03 02:57:01;;;;;;;;;;;;;;;;;;5068335;28;20015;-61
2023/07/03 02:59:29;;;;;;;;;;;;;;;;;;5064407;28;19920;-63
2023/07/03 03:01:55;;;;;;;;;;;;;;;;;;5067835;28;20389;-62
2023/07/03 03:04:21;;;;;;;;;;;;;;;;;;5068316;28;19925;-62
2023/07/03 03:06:47;;;;;;;;;;;;;;;;;;5065554;28;20373;-63
2023/07/03 03:09:13;;;;;;;;;;;;;;;;;;5067798;28;20426;-62
2023/07/03 03:11:38;;;;;;;;;;;;;;;;;;5068808;28;19924;-63
2023/07/03 03:14:05;;;;;;;;;;;;;;;;;;5065447;28;19944;-62
2023/07/03 03:16:30;;;;;;;;;;;;;;;;;;5052077;28;20066;-62
2023/07/03 03:18:56;;;;;;;;;;;;;;;;;;5055012;28;20404;-62
2023/07/03 03:21:22;;;;;;;;;;;;;;;;;;5052608;28;19926;-62
2023/07/03 03:23:48;;;;;;;;;;;;;;;;;;5049914;28;19950;-62
2023/07/03 03:26:14;;;;;;;;;;;;;;;;;;5055591;28;19924;-61
2023/07/03 03:28:40;;;;;;;;;;;;;;;;;;5055605;28;20484;-63
2023/07/03 03:31:06;;;;;;;;;;;;;;;;;;5068511;28;19928;-62
2023/07/03 03:33:32;;;;;;;;;;;;;;;;;;5063992;28;19943;-63
2023/07/03 03:35:58;;;;;;;;;;;;;;;;;;5066153;28;20399;-63
2023/07/03 03:38:23;;;;;;;;;;;;;;;;;;5069082;28;19928;-63
2023/07/03 03:40:49;;;;;;;;;;;;;;;;;;5069377;28;20017;-62
2023/07/03 03:43:15;;;;;;;;;;;;;;;;;;5069420;28;19925;-62
2023/07/03 03:45:41;;;;;;;;;;;;;;;;;;5064751;28;19998;-62
2023/07/03 03:48:07;;;;;;;;;;;;;;;;;;5068413;28;19931;-63
2023/07/03 03:50:33;;;;;;;;;;;;;;;;;;5069965;28;19920;-62
2023/07/03 03:52:59;;;;;;;;;;;;;;;;;;5069064;28;19924;-62
2023/07/03 03:55:25;;;;;;;;;;;;;;;;;;5068158;28;20362;-62
2023/07/03 03:57:51;;;;;;;;;;;;;;;;;;5049265;28;19924;-63
2023/07/03 04:00:19;;;;;;;;;;;;;;;;;;5068572;28;19932;-62
2023/07/03 04:02:46;;;;;;;;;;;;;;;;;;5067803;28;19927;-62
2023/07/03 04:05:12;;;;;;;;;;;;;;;;;;5069824;28;20015;-62
2023/07/03 04:07:39;;;;;;;;;;;;;;;;;;5068798;28;20035;-62
2023/07/03 04:10:04;;;;;;;;;;;;;;;;;;5050976;28;19966;-62
2023/07/03 04:12:30;;;;;;;;;;;;;;;;;;5070835;28;19925;-63
2023/07/03 04:14:56;;;;;;;;;;;;;;;;;;5070500;28;19924;-62
2023/07/03 04:17:22;;;;;;;;;;;;;;;;;;5051469;28;19964;-62
2023/07/03 04:19:48;;;;;;;;;;;;;;;;;;5062050;28;20487;-63
2023/07/03 04:22:14;;;;;;;;;;;;;;;;;;5067311;28;19928;-62
2023/07/03 04:24:40;;;;;;;;;;;;;;;;;;5070549;28;19925;-62
2023/07/03 04:27:08;;;;;;;;;;;;;;;;;;5068843;28;19932;-62
2023/07/03 04:29:33;;;;;;;;;;;;;;;;;;5069245;28;20007;-62
2023/07/03 04:31:59;;;;;;;;;;;;;;;;;;5068448;28;20007;-62
2023/07/03 04:34:25;;;;;;;;;;;;;;;;;;5069395;28;20740;-62
2023/07/03 04:36:51;;;;;;;;;;;;;;;;;;5057700;28;19924;-62
2023/07/03 04:39:17;;;;;;;;;;;;;;;;;;5068550;28;19943;-63
2023/07/03 04:41:43;;;;;;;;;;;;;;;;;;5067548;28;19925;-61
2023/07/03 04:44:12;;;;;;;;;;;;;;;;;;5067675;28;19976;-62
2023/07/03 04:46:38;;;;;;;;;;;;;;;;;;5063406;28;20370;-62
2023/07/03 04:49:04;;;;;;;;;;;;;;;;;;5069078;28;19927;-62
2023/07/03 04:51:30;;;;;;;;;;;;;;;;;;5068502;28;19924;-63
2023/07/03 04:53:56;;;;;;;;;;;;;;;;;;5067142;28;19928;-63
2023/07/03 04:56:24;;;;;;;;;;;;;;;;;;5067012;28;19925;-62
2023/07/03 04:58:50;;;;;;;;;;;;;;;;;;5068107;28;20011;-62
2023/07/03 05:01:16;;;;;;;;;;;;;;;;;;5070134;28;20074;-63
2023/07/03 05:03:41;;;;;;;;;;;;;;;;;;5052241;28;19924;-62
2023/07/03 05:06:07;;;;;;;;;;;;;;;;;;5073927;28;19920;-62
2023/07/03 05:08:33;;;;;;;;;;;;;;;;;;5066485;28;19947;-63
2023/07/03 05:10:59;;;;;;;;;;;;;;;;;;5070639;28;19921;-62
2023/07/03 05:13:25;;;;;;;;;;;;;;;;;;5071899;28;19920;-61
2023/07/03 05:15:51;;;;;;;;;;;;;;;;;;5055201;28;19924;-62
2023/07/03 05:18:17;;;;;;;;;;;;;;;;;;5072033;28;20049;-62
2023/07/03 05:20:44;;;;;;;;;;;;;;;;;;5070344;28;19920;-63
2023/07/03 05:23:10;;;;;;;;;;;;;;;;;;5070541;28;19932;-62
2023/07/03 05:25:36;;;;;;;;;;;;;;;;;;5070370;28;19929;-62
2023/07/03 05:28:02;;;;;;;;;;;;;;;;;;5072267;28;19927;-62
2023/07/03 05:30:27;;;;;;;;;;;;;;;;;;5068280;28;19964;-61
2023/07/03 05:32:54;;;;;;;;;;;;;;;;;;5073111;28;19921;-62
2023/07/03 05:35:20;;;;;;;;;;;;;;;;;;5068810;28;20365;-62
2023/07/03 05:37:46;;;;;;;;;;;;;;;;;;5071623;28;19924;-63
2023/07/03 05:40:11;;;;;;;;;;;;;;;;;;5070422;28;19920;-62
2023/07/03 05:42:37;;;;;;;;;;;;;;;;;;5068515;28;20275;-61
2023/07/03 05:45:03;;;;;;;;;;;;;;;;;;5069942;28;19959;-62
2023/07/03 05:47:29;;;;;;;;;;;;;;;;;;5073366;28;19920;-62
2023/07/03 05:49:55;;;;;;;;;;;;;;;;;;5072836;28;19927;-62
2023/07/03 05:52:21;;;;;;;;;;;;;;;;;;5054714;28;20565;-63
2023/07/03 05:54:47;;;;;;;;;;;;;;;;;;5073159;28;19927;-62
2023/07/03 05:57:13;;;;;;;;;;;;;;;;;;5059276;28;19928;-62
2023/07/03 05:59:39;;;;;;;;;;;;;;;;;;5073777;28;19937;-62
2023/07/03 06:02:05;;;;;;;;;;;;;;;;;;5058145;28;19928;-62
2023/07/03 06:04:33;;;;;;;;;;;;;;;;;;5072971;28;19924;-62
2023/07/03 06:06:59;;;;;;;;;;;;;;;;;;5055119;28;20030;-62
2023/07/03 06:09:25;;;;;;;;;;;;;;;;;;5069137;28;20013;-62
2023/07/03 06:11:51;;;;;;;;;;;;;;;;;;5071760;28;20006;-62
2023/07/03 06:14:17;;;;;;;;;;;;;;;;;;5070602;28;19925;-62
2023/07/03 06:16:46;;;;;;;;;;;;;;;;;;5073145;28;19931;-62
2023/07/03 06:19:12;;;;;;;;;;;;;;;;;;5064113;28;19921;-62
2023/07/03 06:21:38;;;;;;;;;;;;;;;;;;5062709;28;19982;-62
2023/07/03 06:24:04;;;;;;;;;;;;;;;;;;5059123;28;19924;-63
2023/07/03 06:26:30;;;;;;;;;;;;;;;;;;5072017;28;19993;-62
2023/07/03 06:28:56;;;;;;;;;;;;;;;;;;5068951;28;19975;-62
2023/07/03 06:31:22;;;;;;;;;;;;;;;;;;5071228;28;19924;-62
2023/07/03 06:33:47;;;;;;;;;;;;;;;;;;5072339;28;19924;-61
2023/07/03 06:36:20;;;;;;;;;;;;;;;;;;5063712;28;20508;-63
2023/07/03 06:38:46;;;;;;;;;;;;;;;;;;5060727;28;20019;-63
2023/07/03 06:41:12;;;;;;;;;;;;;;;;;;5063141;28;19920;-63
2023/07/03 06:43:38;;;;;;;;;;;;;;;;;;5066768;28;21757;-62
2023/07/03 06:46:04;;;;;;;;;;;;;;;;;;5062393;28;19950;-65
2023/07/03 06:48:30;;;;;;;;;;;;;;;;;;5070845;28;19961;-63
2023/07/03 06:50:56;;;;;;;;;;;;;;;;;;5062064;28;19947;-62
2023/07/03 06:53:22;;;;;;;;;;;;;;;;;;5062283;28;20002;-63
2023/07/03 06:55:48;;;;;;;;;;;;;;;;;;5058899;28;19930;-63
2023/07/03 06:58:14;;;;;;;;;;;;;;;;;;5055510;28;19924;-63
2023/07/03 07:00:39;;;;;;;;;;;;;;;;;;5057192;28;19925;-63
2023/07/03 07:03:05;;;;;;;;;;;;;;;;;;5052926;28;19925;-62
2023/07/03 07:05:31;;;;;;;;;;;;;;;;;;5054263;28;19968;-63
2023/07/03 07:07:57;;;;;;;;;;;;;;;;;;5056213;28;20015;-63
2023/07/03 07:10:24;;;;;;;;;;;;;;;;;;5055800;28;20390;-64
2023/07/03 07:12:50;;;;;;;;;;;;;;;;;;5060033;28;19920;-62
2023/07/03 07:15:16;;;;;;;;;;;;;;;;;;5050873;28;19935;-63
2023/07/03 07:17:42;;;;;;;;;;;;;;;;;;5060174;28;19924;-62
2023/07/03 07:20:07;;;;;;;;;;;;;;;;;;5051337;28;19935;-62
2023/07/03 07:22:33;;;;;;;;;;;;;;;;;;5052811;28;19920;-63
2023/07/03 07:24:59;;;;;;;;;;;;;;;;;;5059532;28;19990;-63
2023/07/03 07:27:25;;;;;;;;;;;;;;;;;;5064123;28;20369;-63
2023/07/03 07:29:51;;;;;;;;;;;;;;;;;;5049233;28;19939;-63
2023/07/03 07:32:17;;;;;;;;;;;;;;;;;;5057583;28;19964;-62
2023/07/03 07:34:43;;;;;;;;;;;;;;;;;;5052598;28;19924;-62
2023/07/03 07:37:09;;;;;;;;;;;;;;;;;;5052218;28;20020;-62
2023/07/03 07:39:35;;;;;;;;;;;;;;;;;;5056337;28;19960;-63
2023/07/03 07:42:01;;;;;;;;;;;;;;;;;;5053356;28;19929;-63
2023/07/03 07:44:26;;;;;;;;;;;;;;;;;;5064977;28;19936;-62
2023/07/03 07:46:52;;;;;;;;;;;;;;;;;;5066536;28;19931;-63
2023/07/03 07:49:18;;;;;;;;;;;;;;;;;;5065093;28;19990;-62
2023/07/03 07:51:44;;;;;;;;;;;;;;;;;;5068715;28;19924;-63
2023/07/03 07:54:10;;;;;;;;;;;;;;;;;;5067077;28;19924;-63
2023/07/03 07:56:36;;;;;;;;;;;;;;;;;;5065436;28;19970;-64
2023/07/03 07:59:02;;;;;;;;;;;;;;;;;;5066242;28;19999;-63
2023/07/03 08:01:28;;;;;;;;;;;;;;;;;;5060517;28;20457;-63
2023/07/03 08:03:54;;;;;;;;;;;;;;;;;;5064038;28;19975;-62
2023/07/03 08:06:20;;;;;;;;;;;;;;;;;;5064045;28;19928;-63
2023/07/03 08:08:46;;;;;;;;;;;;;;;;;;5068135;28;19920;-64
2023/07/03 08:11:12;;;;;;;;;;;;;;;;;;5065248;28;20404;-62
2023/07/03 08:13:38;;;;;;;;;;;;;;;;;;5067071;28;19929;-63
2023/07/03 08:16:04;;;;;;;;;;;;;;;;;;5067431;28;19920;-65
2023/07/03 08:18:30;;;;;;;;;;;;;;;;;;5067008;28;20297;-63
2023/07/03 08:20:56;;;;;;;;;;;;;;;;;;5069263;28;19935;-62
2023/07/03 08:23:22;;;;;;;;;;;;;;;;;;5048983;28;19970;-62
2023/07/03 08:25:48;;;;;;;;;;;;;;;;;;5057687;28;19924;-62
2023/07/03 08:28:14;;;;;;;;;;;;;;;;;;5067231;28;19927;-63
2023/07/03 08:30:39;;;;;;;;;;;;;;;;;;5068770;28;19928;-63
2023/07/03 08:33:05;;;;;;;;;;;;;;;;;;5069071;28;19928;-63
2023/07/03 08:35:31;;;;;;;;;;;;;;;;;;5070622;28;20270;-62
2023/07/03 08:37:57;;;;;;;;;;;;;;;;;;5069112;28;20234;-62
2023/07/03 08:40:23;;;;;;;;;;;;;;;;;;5073155;28;20042;-63
2023/07/03 08:42:49;;;;;;;;;;;;;;;;;;5070033;28;20050;-63
2023/07/03 08:45:15;;;;;;;;;;;;;;;;;;5075284;28;19930;-63
2023/07/03 08:47:41;;;;;;;;;;;;;;;;;;5073046;28;19920;-62
2023/07/03 08:50:07;;;;;;;;;;;;;;;;;;5073693;28;20377;-62
2023/07/03 08:52:33;;;;;;;;;;;;;;;;;;5072300;28;20355;-61
2023/07/03 08:54:59;;;;;;;;;;;;;;;;;;5072718;28;20015;-63
2023/07/03 08:57:25;;;;;;;;;;;;;;;;;;5064491;28;19925;-63
2023/07/03 08:59:51;;;;;;;;;;;;;;;;;;5071498;28;19924;-62
2023/07/03 09:02:17;;;;;;;;;;;;;;;;;;5070242;28;20295;-63
2023/07/03 09:04:43;;;;;;;;;;;;;;;;;;5067422;28;19931;-63
2023/07/03 09:07:08;;;;;;;;;;;;;;;;;;5071338;28;19930;-61
2023/07/03 09:09:34;;;;;;;;;;;;;;;;;;5071592;28;19946;-62
2023/07/03 09:12:00;;;;;;;;;;;;;;;;;;5072774;28;19931;-62
2023/07/03 09:14:26;;;;;;;;;;;;;;;;;;5072168;28;20285;-62
2023/07/03 09:16:52;;;;;;;;;;;;;;;;;;5074017;28;20042;-63
2023/07/03 09:19:20;;;;;;;;;;;;;;;;;;5069029;28;19928;-63
2023/07/03 09:21:46;;;;;;;;;;;;;;;;;;5063594;28;19986;-61
2023/07/03 09:24:12;;;;;;;;;;;;;;;;;;5071731;28;20308;-63
2023/07/03 09:26:37;;;;;;;;;;;;;;;;;;5071852;28;19930;-62
2023/07/03 09:29:03;;;;;;;;;;;;;;;;;;5072314;28;19952;-63
2023/07/03 09:31:29;;;;;;;;;;;;;;;;;;5076390;28;20397;-65
2023/07/03 09:33:55;;;;;;;;;;;;;;;;;;5070360;28;19960;-63
2023/07/03 09:36:21;;;;;;;;;;;;;;;;;;5073902;28;20011;-63
2023/07/03 09:38:47;;;;;;;;;;;;;;;;;;5071137;28;19947;-62
2023/07/03 09:41:13;;;;;;;;;;;;;;;;;;5070438;28;19925;-63
2023/07/03 09:43:39;;;;;;;;;;;;;;;;;;5062727;28;19928;-63
2023/07/03 09:46:05;;;;;;;;;;;;;;;;;;5059537;28;20393;-62
2023/07/03 09:48:31;;;;;;;;;;;;;;;;;;5069802;28;19975;-63
2023/07/03 09:50:57;;;;;;;;;;;;;;;;;;5068234;28;19951;-62
2023/07/03 09:53:22;;;;;;;;;;;;;;;;;;5069061;28;19930;-63
2023/07/03 09:55:48;;;;;;;;;;;;;;;;;;5065990;28;19965;-63
2023/07/03 09:58:14;;;;;;;;;;;;;;;;;;5063212;28;20270;-63
2023/07/03 10:00:40;;;;;;;;;;;;;;;;;;5060810;28;19932;-62
2023/07/03 10:03:06;;;;;;;;;;;;;;;;;;5066809;28;19928;-62
2023/07/03 10:05:32;;;;;;;;;;;;;;;;;;5071654;28;19920;-62
2023/07/03 10:07:58;;;;;;;;;;;;;;;;;;5068277;28;19924;-62
2023/07/03 10:10:27;;;;;;;;;;;;;;;;;;5068693;28;19995;-63
2023/07/03 10:12:53;;;;;;;;;;;;;;;;;;5065631;28;20011;-62
2023/07/03 10:15:19;;;;;;;;;;;;;;;;;;5066987;28;20024;-62
2023/07/03 10:17:44;;;;;;;;;;;;;;;;;;5066642;28;20007;-62
2023/07/03 10:20:10;;;;;;;;;;;;;;;;;;5070509;28;19925;-62
2023/07/03 10:22:37;;;;;;;;;;;;;;;;;;5070699;28;19928;-61
2023/07/03 10:25:04;;;;;;;;;;;;;;;;;;5067913;28;19925;-62
2023/07/03 10:27:30;;;;;;;;;;;;;;;;;;5070979;28;20019;-62
2023/07/03 10:29:56;;;;;;;;;;;;;;;;;;5069806;28;20015;-62
2023/07/03 10:32:21;;;;;;;;;;;;;;;;;;5070570;28;19927;-62
2023/07/03 10:34:47;;;;;;;;;;;;;;;;;;5070502;28;19924;-63
2023/07/03 10:37:13;;;;;;;;;;;;;;;;;;5071925;28;19924;-62
2023/07/03 10:39:40;;;;;;;;;;;;;;;;;;5062570;28;20016;-62
2023/07/03 10:42:06;;;;;;;;;;;;;;;;;;5071270;28;19932;-62
2023/07/03 10:44:32;;;;;;;;;;;;;;;;;;5060721;28;19925;-62
2023/07/03 10:46:58;;;;;;;;;;;;;;;;;;5054016;28;19925;-60
2023/07/03 10:49:24;;;;;;;;;;;;;;;;;;5072944;28;19924;-61
2023/07/03 10:51:52;;;;;;;;;;;;;;;;;;5067050;28;19938;-61
2023/07/03 10:54:18;;;;;;;;;;;;;;;;;;5071165;28;19947;-62
2023/07/03 10:56:44;;;;;;;;;;;;;;;;;;5073086;28;20346;-62
2023/07/03 10:59:10;;;;;;;;;;;;;;;;;;5071755;28;20372;-61
2023/07/03 11:01:36;;;;;;;;;;;;;;;;;;5071835;28;20000;-61
2023/07/03 11:04:02;;;;;;;;;;;;;;;;;;5071590;28;19935;-62
2023/07/03 11:06:28;;;;;;;;;;;;;;;;;;5062673;22;19924;-68
2023/07/03 11:08:54;;;;;;;;;;;;;;;;;;5050540;28;19931;-68
2023/07/03 11:11:21;;;;;;;;;;;;;;;;;;5052454;28;21259;-68
2023/07/03 11:13:49;;;;;;;;;;;;;;;;;;5050024;28;19928;-68
2023/07/03 11:16:15;;;;;;;;;;;;;;;;;;5046380;28;20362;-68
2023/07/03 11:18:41;;;;;;;;;;;;;;;;;;5051145;28;20010;-68
2023/07/03 11:21:07;;;;;;;;;;;;;;;;;;5040372;28;19986;-68
2023/07/03 11:23:33;;;;;;;;;;;;;;;;;;5041618;28;19979;-68
2023/07/03 11:25:59;;;;;;;;;;;;;;;;;;5049920;28;20378;-68
2023/07/03 11:28:25;;;;;;;;;;;;;;;;;;5049623;28;19963;-68
2023/07/03 11:30:50;;;;;;;;;;;;;;;;;;5049046;28;19928;-68
2023/07/03 11:33:16;;;;;;;;;;;;;;;;;;5051463;28;20277;-68
2023/07/03 11:35:42;;;;;;;;;;;;;;;;;;5047458;28;19921;-68
2023/07/03 11:38:09;;;;;;;;;;;;;;;;;;5049027;28;19975;-68
2023/07/03 11:40:35;;;;;;;;;;;;;;;;;;5049483;28;20474;-68
2023/07/03 11:43:01;;;;;;;;;;;;;;;;;;5050374;28;20290;-68
2023/07/03 11:45:27;;;;;;;;;;;;;;;;;;5046251;28;19935;-67
2023/07/03 11:47:53;;;;;;;;;;;;;;;;;;5049974;28;20011;-68
2023/07/03 11:50:19;;;;;;;;;;;;;;;;;;5051135;28;19931;-68
2023/07/03 11:52:45;;;;;;;;;;;;;;;;;;5051728;28;20282;-67
2023/07/03 11:55:11;;;;;;;;;;;;;;;;;;5048986;28;19925;-68
2023/07/03 11:57:37;;;;;;;;;;;;;;;;;;5047471;28;20073;-67
2023/07/03 12:00:03;;;;;;;;;;;;;;;;;;5049496;28;20372;-68
2023/07/03 12:02:29;;;;;;;;;;;;;;;;;;5050838;28;19927;-68
2023/07/03 12:04:57;;;;;;;;;;;;;;;;;;5052525;28;20015;-67
2023/07/03 12:07:22;;;;;;;;;;;;;;;;;;5050066;28;20423;-68
2023/07/03 12:09:48;;;;;;;;;;;;;;;;;;5049342;28;20007;-67
2023/07/03 12:12:14;;;;;;;;;;;;;;;;;;5048800;28;19920;-67
2023/07/03 12:14:44;;;;;;;;;;;;;;;;;;5048651;28;20044;-67
2023/07/03 12:17:10;;;;;;;;;;;;;;;;;;5042545;28;20378;-68
2023/07/03 12:19:36;;;;;;;;;;;;;;;;;;5047689;28;19947;-67
2023/07/03 12:22:02;;;;;;;;;;;;;;;;;;5044493;28;19921;-68
2023/07/03 12:24:28;;;;;;;;;;;;;;;;;;5049605;28;19936;-68
2023/07/03 12:26:54;;;;;;;;;;;;;;;;;;5049439;28;19928;-68
2023/07/03 12:29:20;;;;;;;;;;;;;;;;;;5051059;28;19921;-68
2023/07/03 12:31:46;;;;;;;;;;;;;;;;;;5050947;28;19944;-68
2023/07/03 12:34:12;;;;;;;;;;;;;;;;;;5051336;28;19932;-67
2023/07/03 12:36:38;;;;;;;;;;;;;;;;;;5050857;28;19925;-67
2023/07/03 12:39:04;;;;;;;;;;;;;;;;;;5049104;28;20469;-68
2023/07/03 12:41:30;;;;;;;;;;;;;;;;;;5049403;28;19921;-68
2023/07/03 12:43:56;;;;;;;;;;;;;;;;;;5051023;28;19951;-67
2023/07/03 12:46:21;;;;;;;;;;;;;;;;;;5049277;28;19920;-68
2023/07/03 12:48:47;;;;;;;;;;;;;;;;;;5051034;28;19983;-68
2023/07/03 12:51:13;;;;;;;;;;;;;;;;;;5048296;28;19971;-68
2023/07/03 12:53:42;;;;;;;;;;;;;;;;;;5049486;28;20398;-68
2023/07/03 12:56:08;;;;;;;;;;;;;;;;;;5050994;28;19952;-68
2023/07/03 12:58:34;;;;;;;;;;;;;;;;;;5050681;28;20360;-68
2023/07/03 13:01:00;;;;;;;;;;;;;;;;;;5050642;28;20396;-68
2023/07/03 13:03:26;;;;;;;;;;;;;;;;;;5049227;28;20024;-68
2023/07/03 13:05:51;;;;;;;;;;;;;;;;;;5049718;28;19935;-66
2023/07/03 13:08:17;;;;;;;;;;;;;;;;;;5050857;28;20362;-68
2023/07/03 13:10:43;;;;;;;;;;;;;;;;;;5032767;28;19971;-62
2023/07/03 13:13:09;;;;;;;;;;;;;;;;;;5049713;28;20279;-61
2023/07/03 13:15:36;;;;;;;;;;;;;;;;;;5044875;28;20239;-61
2023/07/03 13:18:02;;;;;;;;;;;;;;;;;;5038586;28;19921;-62
2023/07/03 13:20:28;;;;;;;;;;;;;;;;;;5047308;28;19956;-62
2023/07/03 13:22:54;;;;;;;;;;;;;;;;;;5048138;28;19928;-61
2023/07/03 13:25:20;;;;;;;;;;;;;;;;;;5052558;28;19925;-62
2023/07/03 13:27:46;;;;;;;;;;;;;;;;;;5054089;28;19937;-61
2023/07/03 13:30:12;;;;;;;;;;;;;;;;;;5057554;28;20293;-62
2023/07/03 13:32:38;;;;;;;;;;;;;;;;;;5053799;28;19921;-62
2023/07/03 13:35:04;;;;;;;;;;;;;;;;;;5053114;28;19925;-61
2023/07/03 13:37:30;;;;;;;;;;;;;;;;;;5051214;28;20389;-61
2023/07/03 13:39:56;;;;;;;;;;;;;;;;;;5051858;28;19964;-62
2023/07/03 13:42:21;;;;;;;;;;;;;;;;;;5054066;28;19939;-61
2023/07/03 13:44:47;;;;;;;;;;;;;;;;;;5033265;28;19929;-62
2023/07/03 13:47:13;;;;;;;;;;;;;;;;;;5046791;28;19925;-62
2023/07/03 13:49:39;;;;;;;;;;;;;;;;;;5048609;28;19924;-62
2023/07/03 13:52:05;;;;;;;;;;;;;;;;;;5050122;28;20320;-66
2023/07/03 13:54:32;;;;;;;;;;;;;;;;;;5049076;28;19928;-66
2023/07/03 13:56:58;;;;;;;;;;;;;;;;;;5052971;28;19960;-66
2023/07/03 13:59:24;;;;;;;;;;;;;;;;;;5048282;28;20029;-66
2023/07/03 14:01:50;;;;;;;;;;;;;;;;;;5038167;28;20277;-67
2023/07/03 14:04:16;;;;;;;;;;;;;;;;;;5050493;28;19929;-66
2023/07/03 14:06:42;;;;;;;;;;;;;;;;;;5048451;28;19925;-66
2023/07/03 14:09:11;;;;;;;;;;;;;;;;;;5050054;28;20282;-65
2023/07/03 14:11:36;;;;;;;;;;;;;;;;;;5051863;28;19925;-66
2023/07/03 14:14:02;;;;;;;;;;;;;;;;;;5046836;28;19924;-66
2023/07/03 14:16:28;;;;;;;;;;;;;;;;;;5049198;28;19925;-66
2023/07/03 14:18:54;;;;;;;;;;;;;;;;;;5048398;28;19927;-66
2023/07/03 14:21:20;;;;;;;;;;;;;;;;;;5044652;28;20309;-66
2023/07/03 14:23:48;;;;;;;;;;;;;;;;;;5046817;28;19955;-65
2023/07/03 14:26:14;;;;;;;;;;;;;;;;;;5052031;28;19932;-66
2023/07/03 14:28:40;;;;;;;;;;;;;;;;;;5047354;28;19926;-66
2023/07/03 14:31:06;;;;;;;;;;;;;;;;;;5048106;28;20260;-65
2023/07/03 14:33:32;;;;;;;;;;;;;;;;;;5051311;28;19920;-65
2023/07/03 14:35:58;;;;;;;;;;;;;;;;;;5048921;28;19929;-65
2023/07/03 14:38:24;;;;;;;;;;;;;;;;;;5052704;28;19925;-65
2023/07/03 14:40:49;;;;;;;;;;;;;;;;;;5044851;28;19922;-65
2023/07/03 14:43:15;;;;;;;;;;;;;;;;;;5046255;28;19924;-65
2023/07/03 14:45:41;;;;;;;;;;;;;;;;;;5049050;28;19990;-65
2023/07/03 14:48:07;;;;;;;;;;;;;;;;;;5052781;28;19929;-65
2023/07/03 14:50:33;;;;;;;;;;;;;;;;;;5050451;28;19928;-65
2023/07/03 14:52:59;;;;;;;;;;;;;;;;;;5045762;28;20477;-65
2023/07/03 14:55:25;;;;;;;;;;;;;;;;;;5049086;28;19975;-65
2023/07/03 14:57:51;;;;;;;;;;;;;;;;;;5051307;28;19986;-65
2023/07/03 15:00:17;;;;;;;;;;;;;;;;;;5049029;28;20315;-65
2023/07/03 15:02:45;;;;;;;;;;;;;;;;;;5052225;28;19944;-65
2023/07/03 15:05:11;;;;;;;;;;;;;;;;;;5051416;28;19925;-65
2023/07/03 15:07:37;;;;;;;;;;;;;;;;;;5049512;28;19933;-65
2023/07/03 15:10:03;;;;;;;;;;;;;;;;;;5051264;28;20525;-64
2023/07/03 15:12:29;;;;;;;;;;;;;;;;;;5051865;28;19921;-65
2023/07/03 15:14:55;;;;;;;;;;;;;;;;;;5049991;28;19927;-65
2023/07/03 15:17:20;;;;;;;;;;;;;;;;;;5050060;28;19925;-65
2023/07/03 15:19:46;;;;;;;;;;;;;;;;;;5048826;28;19929;-65
2023/07/03 15:22:12;;;;;;;;;;;;;;;;;;5051681;28;20012;-65
2023/07/03 15:24:38;;;;;;;;;;;;;;;;;;5047381;28;19929;-65
2023/07/03 15:27:05;;;;;;;;;;;;;;;;;;5045013;28;19925;-65
2023/07/03 15:29:31;;;;;;;;;;;;;;;;;;5048060;28;19956;-65
2023/07/03 15:31:56;;;;;;;;;;;;;;;;;;5048301;28;19960;-65
2023/07/03 15:34:22;;;;;;;;;;;;;;;;;;5043980;28;19931;-65
2023/07/03 15:36:48;;;;;;;;;;;;;;;;;;5049421;28;20405;-65
2023/07/03 15:39:14;;;;;;;;;;;;;;;;;;5045738;28;19925;-65
2023/07/03 15:41:40;;;;;;;;;;;;;;;;;;5042011;28;19967;-65
2023/07/03 15:44:06;;;;;;;;;;;;;;;;;;5046077;28;20385;-65
2023/07/03 15:46:32;;;;;;;;;;;;;;;;;;5049677;28;20385;-65
2023/07/03 15:48:58;;;;;;;;;;;;;;;;;;5049529;28;19928;-65
2023/07/03 15:51:24;;;;;;;;;;;;;;;;;;5050562;28;19967;-65
2023/07/03 15:53:50;;;;;;;;;;;;;;;;;;5045866;28;19978;-67
2023/07/03 15:56:16;;;;;;;;;;;;;;;;;;5048354;28;19983;-67
2023/07/03 15:58:41;;;;;;;;;;;;;;;;;;5049946;28;20313;-67
2023/07/03 16:01:07;;;;;;;;;;;;;;;;;;5050526;28;19969;-67
2023/07/03 16:03:33;;;;;;;;;;;;;;;;;;5049770;28;19933;-67
2023/07/03 16:05:59;;;;;;;;;;;;;;;;;;5048540;28;20285;-66
2023/07/03 16:08:25;;;;;;;;;;;;;;;;;;5050541;28;20254;-67
2023/07/03 16:10:51;;;;;;;;;;;;;;;;;;5049535;28;19920;-67
2023/07/03 16:13:17;;;;;;;;;;;;;;;;;;5044889;28;19932;-67
2023/07/03 16:15:43;;;;;;;;;;;;;;;;;;5046279;28;19921;-67
2023/07/03 16:18:09;;;;;;;;;;;;;;;;;;5051618;28;19944;-67
2023/07/03 16:20:35;;;;;;;;;;;;;;;;;;5045571;28;20420;-67
2023/07/03 16:23:01;;;;;;;;;;;;;;;;;;5047690;28;20078;-67
2023/07/03 16:25:27;;;;;;;;;;;;;;;;;;5045421;28;19951;-67
2023/07/03 16:27:53;;;;;;;;;;;;;;;;;;5049317;28;20397;-67
2023/07/03 16:30:18;;;;;;;;;;;;;;;;;;5048865;28;20619;-67
2023/07/03 16:32:45;;;;;;;;;;;;;;;;;;5045736;28;19925;-67
2023/07/03 16:35:11;;;;;;;;;;;;;;;;;;5045651;28;20053;-67
2023/07/03 16:37:37;;;;;;;;;;;;;;;;;;5047012;28;19979;-67